createdAt,value
2023-03-26T00:00:26.673Z,9.40
2023-03-26T00:05:29.569Z,9.40
2023-03-26T00:10:33.230Z,9.40
2023-03-26T00:15:37.983Z,9.40
2023-03-26T00:20:41.496Z,9.30
2023-03-26T00:25:46.079Z,9.30
2023-03-26T00:30:57.341Z,9.30
2023-03-26T00:36:03.887Z,9.20
2023-03-26T00:41:17.930Z,9.20
2023-03-26T00:46:21.149Z,9.30
2023-03-26T00:51:24.306Z,9.40
2023-03-26T00:56:27.388Z,9.40
2023-03-26T01:01:32.541Z,9.40
2023-03-26T01:06:37.840Z,9.30
2023-03-26T01:11:40.914Z,9.40
2023-03-26T01:16:52.652Z,9.40
2023-03-26T01:21:56.346Z,9.30
2023-03-26T01:27:12.161Z,9.20
2023-03-26T01:32:59.016Z,9.10
2023-03-26T01:38:23.337Z,8.90
2023-03-26T01:43:39.179Z,8.70
2023-03-26T01:48:47.280Z,8.60
2023-03-26T01:53:50.639Z,8.50
2023-03-26T01:59:29.484Z,8.50
2023-03-26T02:04:57.917Z,8.50
2023-03-26T02:10:29.583Z,8.40
2023-03-26T02:15:33.563Z,8.40
2023-03-26T02:20:37.779Z,8.40
2023-03-26T02:25:42.789Z,8.40
2023-03-26T02:30:46.036Z,8.50
2023-03-26T02:35:49.325Z,8.50
2023-03-26T02:40:54.519Z,8.50
2023-03-26T02:45:58.412Z,8.50
2023-03-26T02:51:03.051Z,8.50
2023-03-26T02:56:06.954Z,8.50
2023-03-26T03:01:09.995Z,8.50
2023-03-26T03:06:13.473Z,8.50
2023-03-26T03:11:24.633Z,8.40
2023-03-26T03:16:28.678Z,8.30
2023-03-26T03:21:31.784Z,8.20
2023-03-26T03:26:36.592Z,8.10
2023-03-26T03:31:41.334Z,8.10
2023-03-26T03:36:48.757Z,8.00
2023-03-26T03:41:51.733Z,8.00
2023-03-26T03:46:56.098Z,8.00
2023-03-26T03:51:59.091Z,7.90
2023-03-26T03:57:02.302Z,7.90
2023-03-26T04:02:05.402Z,7.90
2023-03-26T04:07:08.406Z,7.80
2023-03-26T04:12:11.515Z,7.80
2023-03-26T04:17:15.490Z,7.80
2023-03-26T04:22:19.480Z,7.70
2023-03-26T04:27:28.239Z,7.80
2023-03-26T04:32:34.324Z,7.80
2023-03-26T04:37:41.205Z,7.90
2023-03-26T04:42:46.944Z,7.90
2023-03-26T04:47:50.953Z,7.90
2023-03-26T04:52:59.537Z,7.90
2023-03-26T04:58:05.602Z,7.90
2023-03-26T05:03:12.415Z,8.00
2023-03-26T05:08:15.688Z,8.20
2023-03-26T05:13:18.671Z,8.50
2023-03-26T05:18:21.678Z,8.70
2023-03-26T05:23:24.718Z,8.90
2023-03-26T05:28:28.356Z,9.20
2023-03-26T05:33:31.437Z,9.40
2023-03-26T05:38:34.429Z,9.60
2023-03-26T05:43:37.439Z,9.80
2023-03-26T05:48:40.967Z,9.90
2023-03-26T05:53:44.129Z,10.00
2023-03-26T05:58:47.623Z,10.10
2023-03-26T06:03:51.628Z,10.20
2023-03-26T06:09:01.474Z,10.40
2023-03-26T06:14:05.894Z,10.60
2023-03-26T06:19:08.944Z,10.70
2023-03-26T06:24:12.474Z,10.80
2023-03-26T06:29:16.129Z,10.90
2023-03-26T06:34:19.076Z,11.20
2023-03-26T06:39:22.297Z,11.50
2023-03-26T06:44:25.499Z,11.70
2023-03-26T06:49:28.565Z,11.90
2023-03-26T06:54:31.522Z,12.00
2023-03-26T06:59:34.558Z,12.10
2023-03-26T07:04:38.084Z,12.30
2023-03-26T07:09:41.475Z,12.50
2023-03-26T07:14:44.431Z,12.70
2023-03-26T07:19:47.386Z,12.90
2023-03-26T07:24:51.105Z,13.00
2023-03-26T07:30:07.003Z,13.20
2023-03-26T07:35:41.091Z,13.40
2023-03-26T07:41:05.224Z,13.70
2023-03-26T07:46:12.891Z,14.00
2023-03-26T07:51:18.763Z,14.30
2023-03-26T07:56:39.946Z,14.70
2023-03-26T08:01:48.960Z,14.90
2023-03-26T08:07:22.974Z,15.00
2023-03-26T08:12:41.150Z,15.20
2023-03-26T08:17:59.939Z,15.10
2023-03-26T08:23:27.803Z,14.80
2023-03-26T08:28:48.720Z,14.40
2023-03-26T08:33:51.851Z,14.00
2023-03-26T08:38:54.948Z,14.00
2023-03-26T08:45:12.417Z,14.00
2023-03-26T08:50:38.192Z,13.90
2023-03-26T08:56:05.688Z,14.00
2023-03-26T09:01:56.071Z,14.50
2023-03-26T09:07:35.853Z,14.90
2023-03-26T09:13:25.708Z,15.10
2023-03-26T09:18:50.825Z,15.30
2023-03-26T09:24:10.927Z,15.40
2023-03-26T09:29:53.631Z,15.40
2023-03-26T09:35:13.244Z,15.20
2023-03-26T09:41:04.201Z,15.00
2023-03-26T09:46:38.014Z,14.80
2023-03-26T09:51:59.044Z,14.80
2023-03-26T09:57:29.242Z,14.70
2023-03-26T10:03:27.023Z,14.90
2023-03-26T10:08:56.598Z,15.40
2023-03-26T10:14:53.442Z,16.20
2023-03-26T10:20:37.844Z,16.70
2023-03-26T10:26:36.654Z,17.50
2023-03-26T10:32:24.803Z,18.20
2023-03-26T10:38:01.640Z,18.20
2023-03-26T10:44:05.187Z,19.00
2023-03-26T10:49:23.557Z,20.30
2023-03-26T10:54:56.328Z,20.70
2023-03-26T11:00:26.227Z,20.10
2023-03-26T11:05:47.438Z,19.00
2023-03-26T11:11:29.982Z,18.30
2023-03-26T11:16:59.088Z,18.00
2023-03-26T11:22:46.628Z,17.60
2023-03-26T11:28:32.752Z,17.40
2023-03-26T11:33:45.605Z,18.40
2023-03-26T11:38:53.178Z,19.40
2023-03-26T11:44:07.222Z,19.60
2023-03-26T11:49:16.850Z,20.00
2023-03-26T11:54:21.180Z,20.20
2023-03-26T11:59:45.289Z,19.70
2023-03-26T12:05:03.030Z,19.20
2023-03-26T12:10:21.569Z,18.70
2023-03-26T12:15:26.181Z,18.60
2023-03-26T12:20:36.708Z,19.90
2023-03-26T12:25:40.146Z,21.20
2023-03-26T12:31:02.491Z,21.40
2023-03-26T12:36:26.437Z,21.30
2023-03-26T12:44:44.554Z,20.90
2023-03-26T12:47:59.338Z,20.30
2023-03-26T12:53:15.390Z,20.30
2023-03-26T12:58:25.672Z,20.00
2023-03-26T13:03:42.186Z,19.10
2023-03-26T13:09:45.717Z,18.60
2023-03-26T13:15:07.954Z,18.50
2023-03-26T13:20:15.044Z,18.40
2023-03-26T13:25:53.995Z,18.60
2023-03-26T13:31:23.208Z,19.00
2023-03-26T13:36:57.471Z,19.30
2023-03-26T13:42:21.967Z,19.40
2023-03-26T13:47:31.451Z,19.60
2023-03-26T13:52:46.811Z,19.20
2023-03-26T13:58:03.492Z,18.90
2023-03-26T14:03:48.484Z,18.50
2023-03-26T14:09:02.944Z,18.20
2023-03-26T14:14:43.515Z,18.00
2023-03-26T14:20:22.872Z,18.20
2023-03-26T14:25:46.840Z,19.60
2023-03-26T14:31:30.103Z,20.20
2023-03-26T14:36:59.162Z,19.80
2023-03-26T14:42:18.094Z,19.60
2023-03-26T14:47:25.877Z,19.70
2023-03-26T14:52:48.910Z,19.60
2023-03-26T14:58:03.946Z,20.10
2023-03-26T15:03:10.070Z,20.40
2023-03-26T15:08:53.418Z,20.00
2023-03-26T15:14:29.847Z,19.90
2023-03-26T15:20:03.482Z,19.70
2023-03-26T15:25:45.766Z,19.50
2023-03-26T15:31:21.837Z,19.40
2023-03-26T15:37:10.812Z,19.50
2023-03-26T15:42:38.131Z,19.80
2023-03-26T15:47:48.609Z,20.10
2023-03-26T15:53:39.307Z,19.90
2023-03-26T15:59:13.374Z,19.40
2023-03-26T16:04:54.238Z,18.90
2023-03-26T16:11:07.889Z,18.40
2023-03-26T16:16:25.011Z,18.00
2023-03-26T16:21:32.737Z,17.50
2023-03-26T16:26:45.558Z,17.10
2023-03-26T16:32:09.929Z,16.80
2023-03-26T16:37:32.231Z,16.40
2023-03-26T16:42:41.696Z,16.20
2023-03-26T16:48:01.637Z,16.00
2023-03-26T16:53:29.862Z,15.80
2023-03-26T16:59:10.218Z,15.70
2023-03-26T17:04:24.877Z,15.50
2023-03-26T17:10:14.828Z,15.30
2023-03-26T17:16:13.580Z,15.10
2023-03-26T17:21:46.891Z,14.90
2023-03-26T17:27:17.363Z,14.80
2023-03-26T17:32:21.617Z,14.70
2023-03-26T17:37:26.439Z,14.50
2023-03-26T17:42:32.835Z,14.40
2023-03-26T17:48:16.172Z,14.30
2023-03-26T17:53:37.890Z,14.20
2023-03-26T17:58:52.725Z,14.20
2023-03-26T18:04:00.493Z,14.20
2023-03-26T18:09:45.143Z,14.20
2023-03-26T18:14:55.457Z,14.30
2023-03-26T18:20:10.034Z,14.30
2023-03-26T18:25:27.202Z,14.40
2023-03-26T18:30:30.516Z,14.40
2023-03-26T18:35:55.701Z,14.40
2023-03-26T18:40:59.330Z,14.40
2023-03-26T18:46:04.196Z,14.50
2023-03-26T18:51:07.966Z,14.40
2023-03-26T18:56:42.307Z,14.40
2023-03-26T19:01:47.493Z,14.30
2023-03-26T19:06:55.211Z,14.20
2023-03-26T19:12:16.408Z,14.10
2023-03-26T19:17:19.524Z,14.10
2023-03-26T19:22:24.763Z,14.10
2023-03-26T19:27:28.311Z,14.00
2023-03-26T19:32:35.139Z,14.00
2023-03-26T19:37:51.396Z,14.00
2023-03-26T19:42:54.145Z,13.90
2023-03-26T19:48:13.903Z,13.80
2023-03-26T19:53:29.988Z,13.80
2023-03-26T19:58:32.993Z,13.70
2023-03-26T20:03:43.127Z,13.60
2023-03-26T20:08:51.338Z,13.60
2023-03-26T20:13:54.265Z,13.60
2023-03-26T20:18:58.416Z,13.50
2023-03-26T20:24:01.950Z,13.50
2023-03-26T20:29:06.010Z,13.50
2023-03-26T20:34:20.103Z,13.50
2023-03-26T20:39:26.418Z,13.50
2023-03-26T20:44:30.896Z,13.50
2023-03-26T20:49:33.660Z,13.40
2023-03-26T20:54:37.028Z,13.40
2023-03-26T20:59:39.980Z,13.40
2023-03-26T21:04:42.990Z,13.30
2023-03-26T21:09:48.836Z,13.20
2023-03-26T21:14:52.336Z,13.10
2023-03-26T21:20:08.099Z,12.90
2023-03-26T21:25:32.322Z,12.80
2023-03-26T21:30:35.781Z,12.70
2023-03-26T21:35:39.515Z,12.60
2023-03-26T21:40:49.683Z,12.40
2023-03-26T21:46:00.611Z,12.10
2023-03-26T21:51:05.791Z,11.90
2023-03-26T21:56:33.409Z,11.80
2023-03-26T22:01:54.710Z,11.80
2023-03-26T22:07:18.761Z,11.70
2023-03-26T22:12:22.238Z,11.80
2023-03-26T22:17:27.795Z,11.70
2023-03-26T22:22:30.948Z,11.70
2023-03-26T22:27:34.740Z,11.70
2023-03-26T22:32:48.548Z,11.60
2023-03-26T22:37:51.950Z,11.50
2023-03-26T22:43:04.060Z,11.40
2023-03-26T22:48:07.579Z,11.30
2023-03-26T22:53:10.443Z,11.20
2023-03-26T22:58:13.391Z,11.10
2023-03-26T23:03:16.421Z,11.00
2023-03-26T23:08:20.551Z,10.90
2023-03-26T23:13:25.442Z,10.80
2023-03-26T23:18:29.247Z,10.80
2023-03-26T23:23:34.811Z,10.70
2023-03-26T23:28:38.515Z,10.70
2023-03-26T23:33:46.173Z,10.50
2023-03-26T23:38:51.621Z,10.50
2023-03-26T23:43:55.875Z,10.50
2023-03-26T23:49:03.599Z,10.50
2023-03-26T23:54:07.761Z,10.50
2023-03-26T23:59:10.522Z,10.50
